createdAt,value
2017-12-19T00:00:25.492Z,1016.77
2017-12-19T00:01:25.381Z,1016.75
2017-12-19T00:02:25.306Z,1016.73
2017-12-19T00:03:25.214Z,1016.77
2017-12-19T00:04:25.120Z,1016.73
2017-12-19T00:05:25.028Z,1016.79
2017-12-19T00:06:24.951Z,1016.78
2017-12-19T00:07:24.873Z,1016.76
2017-12-19T00:08:24.767Z,1016.73
2017-12-19T00:09:24.688Z,1016.74
2017-12-19T00:10:24.614Z,1016.71
2017-12-19T00:11:24.508Z,1016.69
2017-12-19T00:12:24.422Z,1016.68
2017-12-19T00:13:24.336Z,1016.69
2017-12-19T00:14:24.252Z,1016.69
2017-12-19T00:15:24.166Z,1016.69
2017-12-19T00:16:24.066Z,1016.67
2017-12-19T00:17:23.986Z,1016.70
2017-12-19T00:18:23.889Z,1016.72
2017-12-19T00:19:23.810Z,1016.74
2017-12-19T00:20:23.719Z,1016.72
2017-12-19T00:21:23.633Z,1016.70
2017-12-19T00:22:23.542Z,1016.65
2017-12-19T00:23:23.453Z,1016.68
2017-12-19T00:24:23.379Z,1016.71
2017-12-19T00:25:23.274Z,1016.75
2017-12-19T00:26:23.191Z,1016.79
2017-12-19T00:27:23.107Z,1016.81
2017-12-19T00:28:23.012Z,1016.83
2017-12-19T00:29:22.925Z,1016.81
2017-12-19T00:30:22.855Z,1016.84
2017-12-19T00:31:22.752Z,1016.85
2017-12-19T00:32:22.665Z,1016.83
2017-12-19T00:33:22.576Z,1016.86
2017-12-19T00:34:22.484Z,1016.88
2017-12-19T00:35:22.400Z,1016.93
2017-12-19T00:36:22.317Z,1016.91
2017-12-19T00:37:22.228Z,1016.94
2017-12-19T00:38:22.139Z,1016.95
2017-12-19T00:39:22.047Z,1016.94
2017-12-19T00:40:21.961Z,1016.91
2017-12-19T00:41:21.870Z,1016.92
2017-12-19T00:42:21.786Z,1016.91
2017-12-19T00:43:21.697Z,1016.88
2017-12-19T00:44:21.612Z,1016.89
2017-12-19T00:45:21.519Z,1016.90
2017-12-19T00:46:21.433Z,1016.89
2017-12-19T00:47:21.354Z,1016.91
2017-12-19T00:48:21.259Z,1016.89
2017-12-19T00:49:21.195Z,1016.86
2017-12-19T00:50:21.906Z,1016.84
2017-12-19T00:51:21.002Z,1016.81
2017-12-19T00:52:20.907Z,1016.76
2017-12-19T00:53:20.819Z,1016.79
2017-12-19T00:54:20.735Z,1016.85
2017-12-19T00:55:20.641Z,1016.89
2017-12-19T00:56:20.566Z,1016.93
2017-12-19T00:57:20.470Z,1016.98
2017-12-19T00:58:20.382Z,1016.98
2017-12-19T00:59:20.286Z,1016.99
2017-12-19T01:00:20.209Z,1017.01
2017-12-19T01:01:20.116Z,1017.01
2017-12-19T01:02:20.033Z,1017.00
2017-12-19T01:03:19.964Z,1017.03
2017-12-19T01:04:19.853Z,1016.98
2017-12-19T01:05:19.781Z,1017.02
2017-12-19T01:06:19.684Z,1017.02
2017-12-19T01:07:19.596Z,1017.07
2017-12-19T01:08:19.511Z,1017.09
2017-12-19T01:09:19.427Z,1017.05
2017-12-19T01:10:19.335Z,1017.10
2017-12-19T01:11:19.248Z,1017.11
2017-12-19T01:12:19.152Z,1017.15
2017-12-19T01:13:19.080Z,1017.22
2017-12-19T01:14:18.972Z,1017.30
2017-12-19T01:15:18.908Z,1017.26
2017-12-19T01:16:18.807Z,1017.30
2017-12-19T01:17:18.718Z,1017.35
2017-12-19T01:18:18.622Z,1017.43
2017-12-19T01:19:18.541Z,1017.41
2017-12-19T01:20:18.507Z,1017.48
2017-12-19T01:21:18.372Z,1017.46
2017-12-19T01:22:18.277Z,1017.47
2017-12-19T01:23:18.191Z,1017.49
2017-12-19T01:24:18.102Z,1017.45
2017-12-19T01:25:18.006Z,1017.41
2017-12-19T01:26:17.920Z,1017.39
2017-12-19T01:27:17.841Z,1017.39
2017-12-19T01:28:17.747Z,1017.37
2017-12-19T01:29:17.669Z,1017.44
2017-12-19T01:30:17.582Z,1017.52
2017-12-19T01:31:17.482Z,1017.58
2017-12-19T01:32:17.390Z,1017.53
2017-12-19T01:33:17.314Z,1017.49
2017-12-19T01:34:17.230Z,1017.36
2017-12-19T01:35:17.141Z,1017.44
2017-12-19T01:36:17.051Z,1017.47
2017-12-19T01:37:16.962Z,1017.58
2017-12-19T01:38:16.865Z,1017.64
2017-12-19T01:39:16.777Z,1017.62
2017-12-19T01:40:16.692Z,1017.61
2017-12-19T01:41:16.601Z,1017.58
2017-12-19T01:42:16.519Z,1017.58
2017-12-19T01:43:16.425Z,1017.59
2017-12-19T01:44:16.337Z,1017.59
2017-12-19T01:45:16.250Z,1017.55
2017-12-19T01:46:16.165Z,1017.54
2017-12-19T01:47:16.076Z,1017.55
2017-12-19T01:48:15.988Z,1017.51
2017-12-19T01:49:16.490Z,1017.50
2017-12-19T01:50:15.814Z,1017.55
2017-12-19T01:51:15.722Z,1017.61
2017-12-19T01:52:15.639Z,1017.66
2017-12-19T01:53:15.549Z,1017.68
2017-12-19T01:54:15.470Z,1017.70
2017-12-19T01:55:15.371Z,1017.64
2017-12-19T01:56:15.291Z,1017.55
2017-12-19T01:57:15.196Z,1017.62
2017-12-19T01:58:15.106Z,1017.60
2017-12-19T01:59:15.017Z,1017.66
2017-12-19T02:00:14.952Z,1017.67
2017-12-19T02:01:14.847Z,1017.63
2017-12-19T02:02:14.759Z,1017.65
2017-12-19T02:03:14.676Z,1017.65
2017-12-19T02:04:14.583Z,1017.63
2017-12-19T02:05:14.495Z,1017.65
2017-12-19T02:06:14.406Z,1017.66
2017-12-19T02:07:14.311Z,1017.74
2017-12-19T02:08:14.228Z,1017.77
2017-12-19T02:09:14.140Z,1017.82
2017-12-19T02:10:14.054Z,1017.84
2017-12-19T02:11:13.967Z,1017.89
2017-12-19T02:12:13.878Z,1017.86
2017-12-19T02:13:13.790Z,1017.87
2017-12-19T02:14:13.696Z,1017.93
2017-12-19T02:15:13.616Z,1017.95
2017-12-19T02:16:13.526Z,1018.00
2017-12-19T02:17:13.438Z,1017.97
2017-12-19T02:18:13.364Z,1018.01
2017-12-19T02:19:13.275Z,1018.01
2017-12-19T02:20:13.176Z,1017.96
2017-12-19T02:21:13.088Z,1017.93
2017-12-19T02:22:12.998Z,1017.95
2017-12-19T02:23:12.903Z,1017.93
2017-12-19T02:24:12.833Z,1017.93
2017-12-19T02:25:12.740Z,1017.97
2017-12-19T02:26:12.647Z,1017.95
2017-12-19T02:27:12.558Z,1017.93
2017-12-19T02:28:12.494Z,1017.96
2017-12-19T02:29:12.390Z,1017.95
2017-12-19T02:30:12.310Z,1017.93
2017-12-19T02:31:12.214Z,1017.95
2017-12-19T02:32:12.121Z,1017.94
2017-12-19T02:33:12.042Z,1018.01
2017-12-19T02:34:11.946Z,1018.01
2017-12-19T02:35:11.862Z,1018.02
2017-12-19T02:36:11.778Z,1018.00
2017-12-19T02:37:11.688Z,1017.92
2017-12-19T02:38:11.600Z,1017.97
2017-12-19T02:39:11.508Z,1017.96
2017-12-19T02:40:11.425Z,1017.96
2017-12-19T02:41:11.333Z,1017.98
2017-12-19T02:42:11.248Z,1018.07
2017-12-19T02:43:11.163Z,1018.18
2017-12-19T02:44:11.079Z,1018.23
2017-12-19T02:45:10.987Z,1018.25
2017-12-19T02:46:10.895Z,1018.31
2017-12-19T02:47:10.856Z,1018.23
2017-12-19T02:48:11.051Z,1018.21
2017-12-19T02:49:10.635Z,1018.22
2017-12-19T02:50:10.542Z,1018.23
2017-12-19T02:51:10.465Z,1018.29
2017-12-19T02:52:10.370Z,1018.31
2017-12-19T02:53:10.275Z,1018.33
2017-12-19T02:54:10.184Z,1018.37
2017-12-19T02:55:10.106Z,1018.40
2017-12-19T02:56:10.013Z,1018.48
2017-12-19T02:57:09.922Z,1018.47
2017-12-19T02:58:09.831Z,1018.45
2017-12-19T02:59:09.743Z,1018.33
2017-12-19T03:00:09.658Z,1018.26
2017-12-19T03:01:09.580Z,1018.24
2017-12-19T03:02:09.490Z,1018.20
2017-12-19T03:03:09.389Z,1018.19
2017-12-19T03:04:09.303Z,1018.25
2017-12-19T03:05:09.211Z,1018.33
2017-12-19T03:06:09.125Z,1018.34
2017-12-19T03:07:09.038Z,1018.31
2017-12-19T03:08:08.952Z,1018.35
2017-12-19T03:09:08.870Z,1018.33
2017-12-19T03:10:08.776Z,1018.28
2017-12-19T03:11:08.682Z,1018.26
2017-12-19T03:12:08.597Z,1018.28
2017-12-19T03:13:08.512Z,1018.31
2017-12-19T03:14:08.427Z,1018.35
2017-12-19T03:15:08.346Z,1018.30
2017-12-19T03:16:08.244Z,1018.30
2017-12-19T03:17:08.160Z,1018.28
2017-12-19T03:18:08.077Z,1018.24
2017-12-19T03:19:07.985Z,1018.25
2017-12-19T03:20:07.900Z,1018.28
2017-12-19T03:21:07.812Z,1018.31
2017-12-19T03:22:07.720Z,1018.33
2017-12-19T03:23:07.633Z,1018.33
2017-12-19T03:24:07.550Z,1018.31
2017-12-19T03:25:07.455Z,1018.31
2017-12-19T03:26:08.193Z,1018.32
2017-12-19T03:27:07.297Z,1018.39
2017-12-19T03:28:07.199Z,1018.38
2017-12-19T03:29:07.104Z,1018.33
2017-12-19T03:30:07.016Z,1018.36
2017-12-19T03:31:06.936Z,1018.35
2017-12-19T03:32:06.844Z,1018.30
2017-12-19T03:33:06.789Z,1018.27
2017-12-19T03:34:06.672Z,1018.27
2017-12-19T03:35:06.581Z,1018.35
2017-12-19T03:36:06.492Z,1018.30
2017-12-19T03:37:06.402Z,1018.31
2017-12-19T03:38:06.320Z,1018.28
2017-12-19T03:39:06.230Z,1018.28
2017-12-19T03:40:06.146Z,1018.27
2017-12-19T03:41:06.056Z,1018.32
2017-12-19T03:42:05.963Z,1018.29
2017-12-19T03:43:05.884Z,1018.31
2017-12-19T03:44:05.794Z,1018.34
2017-12-19T03:45:05.705Z,1018.34
2017-12-19T03:46:05.622Z,1018.41
2017-12-19T03:47:05.633Z,1018.39
2017-12-19T03:48:05.443Z,1018.39
2017-12-19T03:49:05.354Z,1018.39
2017-12-19T03:50:05.272Z,1018.32
2017-12-19T03:51:05.179Z,1018.34
2017-12-19T03:52:05.091Z,1018.33
2017-12-19T03:53:05.009Z,1018.35
2017-12-19T03:54:04.919Z,1018.35
2017-12-19T03:55:04.835Z,1018.35
2017-12-19T03:56:04.749Z,1018.41
2017-12-19T03:57:04.661Z,1018.42
2017-12-19T03:58:04.559Z,1018.44
2017-12-19T03:59:04.482Z,1018.41
2017-12-19T04:00:04.387Z,1018.43
2017-12-19T04:01:04.300Z,1018.40
2017-12-19T04:02:04.229Z,1018.43
2017-12-19T04:03:04.196Z,1018.43
2017-12-19T04:04:04.046Z,1018.49
2017-12-19T04:05:03.954Z,1018.46
2017-12-19T04:06:03.859Z,1018.46
2017-12-19T04:07:03.769Z,1018.42
2017-12-19T04:08:03.692Z,1018.41
2017-12-19T04:09:03.601Z,1018.41
2017-12-19T04:10:03.523Z,1018.41
2017-12-19T04:11:03.437Z,1018.42
2017-12-19T04:12:03.338Z,1018.41
2017-12-19T04:13:03.251Z,1018.42
2017-12-19T04:14:03.156Z,1018.45
2017-12-19T04:15:03.069Z,1018.47
2017-12-19T04:16:02.993Z,1018.51
2017-12-19T04:17:02.908Z,1018.48
2017-12-19T04:18:02.813Z,1018.51
2017-12-19T04:19:02.717Z,1018.55
2017-12-19T04:20:02.643Z,1018.54
2017-12-19T04:21:02.547Z,1018.53
2017-12-19T04:22:02.470Z,1018.53
2017-12-19T04:23:02.369Z,1018.51
2017-12-19T04:24:02.301Z,1018.49
2017-12-19T04:25:02.193Z,1018.50
2017-12-19T04:26:02.110Z,1018.46
2017-12-19T04:27:02.021Z,1018.47
2017-12-19T04:28:01.932Z,1018.50
2017-12-19T04:29:01.853Z,1018.50
2017-12-19T04:30:01.755Z,1018.49
2017-12-19T04:31:01.671Z,1018.49
2017-12-19T04:32:01.604Z,1018.46
2017-12-19T04:33:01.495Z,1018.46
2017-12-19T04:34:01.404Z,1018.48
2017-12-19T04:35:01.326Z,1018.49
2017-12-19T04:36:01.233Z,1018.50
2017-12-19T04:37:01.149Z,1018.50
2017-12-19T04:38:01.056Z,1018.55
2017-12-19T04:39:00.962Z,1018.56
2017-12-19T04:40:00.909Z,1018.56
2017-12-19T04:41:00.789Z,1018.55
2017-12-19T04:42:00.712Z,1018.54
2017-12-19T04:43:00.637Z,1018.56
2017-12-19T04:44:00.532Z,1018.61
2017-12-19T04:45:00.444Z,1018.59
2017-12-19T04:46:00.368Z,1018.65
2017-12-19T04:47:00.267Z,1018.62
2017-12-19T04:48:00.180Z,1018.66
2017-12-19T04:49:00.094Z,1018.70
2017-12-19T04:50:00.000Z,1018.68
2017-12-19T04:50:59.912Z,1018.71
2017-12-19T04:51:59.826Z,1018.74
2017-12-19T04:52:59.739Z,1018.73
2017-12-19T04:53:59.653Z,1018.77
2017-12-19T04:54:59.576Z,1018.79
2017-12-19T04:55:59.475Z,1018.84
2017-12-19T04:56:59.387Z,1018.82
2017-12-19T04:57:59.299Z,1018.80
2017-12-19T04:58:59.214Z,1018.78
2017-12-19T04:59:59.127Z,1018.80
2017-12-19T05:00:59.049Z,1018.79
2017-12-19T05:01:58.954Z,1018.80
2017-12-19T05:02:58.861Z,1018.75
2017-12-19T05:03:58.779Z,1018.75
2017-12-19T05:04:58.687Z,1018.79
2017-12-19T05:05:58.653Z,1018.84
2017-12-19T05:06:58.508Z,1018.85
2017-12-19T05:07:58.426Z,1018.89
2017-12-19T05:08:58.331Z,1018.94
2017-12-19T05:09:58.251Z,1018.91
2017-12-19T05:10:58.162Z,1018.91
2017-12-19T05:11:58.073Z,1018.97
2017-12-19T05:12:57.981Z,1019.05
2017-12-19T05:13:57.898Z,1019.10
2017-12-19T05:14:57.809Z,1019.11
2017-12-19T05:15:58.495Z,1019.10
2017-12-19T05:16:57.633Z,1019.09
2017-12-19T05:17:57.547Z,1019.14
2017-12-19T05:18:57.470Z,1019.17
2017-12-19T05:19:57.371Z,1019.15
2017-12-19T05:20:57.280Z,1019.15
2017-12-19T05:21:57.195Z,1019.15
2017-12-19T05:22:57.106Z,1019.15
2017-12-19T05:23:57.021Z,1019.15
2017-12-19T05:24:56.929Z,1019.20
2017-12-19T05:25:56.847Z,1019.25
2017-12-19T05:26:56.756Z,1019.22
2017-12-19T05:27:56.674Z,1019.27
2017-12-19T05:28:56.578Z,1019.28
2017-12-19T05:29:56.487Z,1019.26
2017-12-19T05:30:56.401Z,1019.24
2017-12-19T05:31:56.320Z,1019.26
2017-12-19T05:32:56.232Z,1019.34
2017-12-19T05:33:56.140Z,1019.29
2017-12-19T05:34:56.053Z,1019.35
2017-12-19T05:35:55.967Z,1019.38
2017-12-19T05:36:55.877Z,1019.39
2017-12-19T05:37:55.787Z,1019.44
2017-12-19T05:38:55.697Z,1019.50
2017-12-19T05:39:55.615Z,1019.54
2017-12-19T05:40:55.531Z,1019.54
2017-12-19T05:41:55.434Z,1019.52
2017-12-19T05:42:55.345Z,1019.52
2017-12-19T05:43:55.261Z,1019.53
2017-12-19T05:44:55.176Z,1019.55
2017-12-19T05:45:55.084Z,1019.57
2017-12-19T05:46:55.007Z,1019.58
2017-12-19T05:47:55.031Z,1019.60
2017-12-19T05:48:54.836Z,1019.59
2017-12-19T05:49:54.739Z,1019.60
2017-12-19T05:50:54.656Z,1019.58
2017-12-19T05:51:54.555Z,1019.57
2017-12-19T05:52:54.471Z,1019.62
2017-12-19T05:53:54.383Z,1019.62
2017-12-19T05:54:54.291Z,1019.66
2017-12-19T05:55:54.205Z,1019.67
2017-12-19T05:56:54.121Z,1019.71
2017-12-19T05:57:54.027Z,1019.73
2017-12-19T05:58:53.940Z,1019.72
2017-12-19T05:59:53.851Z,1019.68
2017-12-19T06:00:53.764Z,1019.72
2017-12-19T06:01:53.683Z,1019.64
2017-12-19T06:02:53.601Z,1019.58
2017-12-19T06:03:53.504Z,1019.58
2017-12-19T06:04:53.421Z,1019.60
2017-12-19T06:05:53.322Z,1019.59
2017-12-19T06:06:53.234Z,1019.61
2017-12-19T06:07:53.151Z,1019.69
2017-12-19T06:08:53.059Z,1019.69
2017-12-19T06:09:52.977Z,1019.69
2017-12-19T06:10:52.880Z,1019.72
2017-12-19T06:11:52.802Z,1019.76
2017-12-19T06:12:52.710Z,1019.79
2017-12-19T06:13:52.619Z,1019.84
2017-12-19T06:14:53.094Z,1019.80
2017-12-19T06:15:52.443Z,1019.81
2017-12-19T06:16:52.361Z,1019.77
2017-12-19T06:17:52.271Z,1019.84
2017-12-19T06:18:52.188Z,1019.85
2017-12-19T06:19:52.094Z,1019.85
2017-12-19T06:20:52.005Z,1019.86
2017-12-19T06:21:51.929Z,1019.81
2017-12-19T06:22:51.827Z,1019.81
2017-12-19T06:23:51.743Z,1019.74
2017-12-19T06:24:51.657Z,1019.79
2017-12-19T06:25:51.570Z,1019.82
2017-12-19T06:26:51.481Z,1019.83
2017-12-19T06:27:51.385Z,1019.87
2017-12-19T06:28:51.302Z,1019.87
2017-12-19T06:29:51.214Z,1019.90
2017-12-19T06:30:51.139Z,1019.90
2017-12-19T06:31:51.038Z,1019.91
2017-12-19T06:32:50.954Z,1019.85
2017-12-19T06:33:50.879Z,1019.92
2017-12-19T06:34:50.778Z,1019.91
2017-12-19T06:35:50.688Z,1019.93
2017-12-19T06:36:50.599Z,1019.94
2017-12-19T06:37:50.517Z,1019.91
2017-12-19T06:38:50.431Z,1019.91
2017-12-19T06:39:50.333Z,1019.91
2017-12-19T06:40:50.246Z,1019.90
2017-12-19T06:41:50.160Z,1019.86
2017-12-19T06:42:50.074Z,1019.84
2017-12-19T06:43:49.983Z,1019.87
2017-12-19T06:44:49.914Z,1019.84
2017-12-19T06:45:49.818Z,1019.88
2017-12-19T06:46:49.722Z,1019.91
2017-12-19T06:47:49.631Z,1019.92
2017-12-19T06:48:49.549Z,1019.94
2017-12-19T06:49:49.455Z,1019.94
2017-12-19T06:50:49.374Z,1019.90
2017-12-19T06:51:49.282Z,1019.91
2017-12-19T06:52:49.195Z,1019.91
2017-12-19T06:53:49.111Z,1019.89
2017-12-19T06:54:49.016Z,1019.91
2017-12-19T06:55:48.928Z,1019.89
2017-12-19T06:56:48.847Z,1019.93
2017-12-19T06:57:48.782Z,1019.96
2017-12-19T06:58:48.669Z,1019.98
2017-12-19T06:59:48.593Z,1020.01
2017-12-19T07:00:48.516Z,1020.01
2017-12-19T07:01:48.400Z,1020.06
2017-12-19T07:02:48.349Z,1020.11
2017-12-19T07:03:48.228Z,1020.11
2017-12-19T07:04:48.142Z,1020.09
2017-12-19T07:05:48.049Z,1020.09
2017-12-19T07:06:47.969Z,1020.07
2017-12-19T07:07:47.875Z,1020.09
2017-12-19T07:08:47.794Z,1020.16
2017-12-19T07:09:47.711Z,1020.15
2017-12-19T07:10:47.679Z,1020.17
2017-12-19T07:11:47.541Z,1020.22
2017-12-19T07:12:47.440Z,1020.20
2017-12-19T07:13:47.883Z,1020.22
2017-12-19T07:14:47.264Z,1020.21
2017-12-19T07:15:47.219Z,1020.21
2017-12-19T07:16:47.096Z,1020.22
2017-12-19T07:17:47.008Z,1020.24
2017-12-19T07:18:46.909Z,1020.24
2017-12-19T07:19:46.831Z,1020.22
2017-12-19T07:20:46.732Z,1020.26
2017-12-19T07:21:46.645Z,1020.26
2017-12-19T07:22:46.559Z,1020.26
2017-12-19T07:23:46.478Z,1020.28
2017-12-19T07:24:46.390Z,1020.32
2017-12-19T07:25:46.291Z,1020.32
2017-12-19T07:26:46.203Z,1020.31
2017-12-19T07:27:46.146Z,1020.32
2017-12-19T07:28:46.023Z,1020.34
2017-12-19T07:29:45.954Z,1020.34
2017-12-19T07:30:45.854Z,1020.35
2017-12-19T07:31:45.757Z,1020.37
2017-12-19T07:32:45.673Z,1020.42
2017-12-19T07:33:45.585Z,1020.47
2017-12-19T07:34:45.493Z,1020.54
2017-12-19T07:35:45.422Z,1020.52
2017-12-19T07:36:45.327Z,1020.47
2017-12-19T07:37:45.231Z,1020.43
2017-12-19T07:38:45.140Z,1020.45
2017-12-19T07:39:45.053Z,1020.41
2017-12-19T07:40:44.968Z,1020.42
2017-12-19T07:41:44.875Z,1020.46
2017-12-19T07:42:44.792Z,1020.46
2017-12-19T07:43:44.698Z,1020.44
2017-12-19T07:44:44.620Z,1020.50
2017-12-19T07:45:44.524Z,1020.48
2017-12-19T07:46:44.435Z,1020.50
2017-12-19T07:47:44.352Z,1020.48
2017-12-19T07:48:44.257Z,1020.50
2017-12-19T07:49:44.169Z,1020.48
2017-12-19T07:50:44.086Z,1020.52
2017-12-19T07:51:43.998Z,1020.53
2017-12-19T07:52:43.910Z,1020.58
2017-12-19T07:53:43.827Z,1020.64
2017-12-19T07:54:43.729Z,1020.60
2017-12-19T07:55:43.640Z,1020.62
2017-12-19T07:56:43.553Z,1020.61
2017-12-19T07:57:43.529Z,1020.65
2017-12-19T07:58:43.372Z,1020.61
2017-12-19T07:59:43.301Z,1020.60
2017-12-19T08:00:43.202Z,1020.60
2017-12-19T08:01:43.110Z,1020.57
2017-12-19T08:02:43.021Z,1020.58
2017-12-19T08:03:42.939Z,1020.61
2017-12-19T08:04:42.859Z,1020.60
2017-12-19T08:05:42.763Z,1020.65
2017-12-19T08:06:42.678Z,1020.64
2017-12-19T08:07:42.581Z,1020.61
2017-12-19T08:08:42.502Z,1020.61
2017-12-19T08:09:42.450Z,1020.62
2017-12-19T08:10:42.323Z,1020.64
2017-12-19T08:11:42.233Z,1020.67
2017-12-19T08:12:42.485Z,1020.72
2017-12-19T08:13:42.063Z,1020.70
2017-12-19T08:14:41.962Z,1020.68
2017-12-19T08:15:41.887Z,1020.69
2017-12-19T08:16:41.795Z,1020.74
2017-12-19T08:17:41.706Z,1020.71
2017-12-19T08:18:41.615Z,1020.65
2017-12-19T08:19:41.531Z,1020.64
2017-12-19T08:20:41.444Z,1020.62
2017-12-19T08:21:41.364Z,1020.62
2017-12-19T08:22:41.266Z,1020.60
2017-12-19T08:23:41.175Z,1020.62
2017-12-19T08:24:41.090Z,1020.64
2017-12-19T08:25:41.001Z,1020.66
2017-12-19T08:26:40.913Z,1020.68
2017-12-19T08:27:40.827Z,1020.66
2017-12-19T08:28:40.739Z,1020.66
2017-12-19T08:29:40.660Z,1020.66
2017-12-19T08:30:40.566Z,1020.67
2017-12-19T08:31:40.480Z,1020.73
2017-12-19T08:32:40.403Z,1020.75
2017-12-19T08:33:40.301Z,1020.81
2017-12-19T08:34:40.216Z,1020.78
2017-12-19T08:35:40.122Z,1020.83
2017-12-19T08:36:40.045Z,1020.80
2017-12-19T08:37:39.953Z,1020.77
2017-12-19T08:38:39.864Z,1020.76
2017-12-19T08:39:39.794Z,1020.82
2017-12-19T08:40:39.699Z,1020.82
2017-12-19T08:41:39.606Z,1020.84
2017-12-19T08:42:39.514Z,1020.84
2017-12-19T08:43:39.427Z,1020.85
2017-12-19T08:44:39.345Z,1020.88
2017-12-19T08:45:39.252Z,1020.91
2017-12-19T08:46:39.165Z,1020.92
2017-12-19T08:47:39.082Z,1020.92
2017-12-19T08:48:38.986Z,1020.96
2017-12-19T08:49:38.942Z,1021.04
2017-12-19T08:50:38.810Z,1021.05
2017-12-19T08:51:38.725Z,1021.10
2017-12-19T08:52:38.636Z,1021.13
2017-12-19T08:53:38.547Z,1021.18
2017-12-19T08:54:38.465Z,1021.14
2017-12-19T08:55:38.374Z,1021.15
2017-12-19T08:56:38.280Z,1021.21
2017-12-19T08:57:38.198Z,1021.22
2017-12-19T08:58:38.112Z,1021.26
2017-12-19T08:59:38.026Z,1021.34
2017-12-19T09:00:37.929Z,1021.44
2017-12-19T09:01:37.849Z,1021.42
2017-12-19T09:02:37.763Z,1021.35
2017-12-19T09:03:37.665Z,1021.37
2017-12-19T09:04:37.585Z,1021.45
2017-12-19T09:05:37.514Z,1021.51
2017-12-19T09:06:37.403Z,1021.52
2017-12-19T09:07:37.324Z,1021.52
2017-12-19T09:08:37.222Z,1021.52
2017-12-19T09:09:37.134Z,1021.51
2017-12-19T09:10:37.069Z,1021.56
2017-12-19T09:11:37.071Z,1021.51
2017-12-19T09:12:36.881Z,1021.49
2017-12-19T09:13:36.782Z,1021.48
2017-12-19T09:14:36.695Z,1021.54
2017-12-19T09:15:36.617Z,1021.54
2017-12-19T09:16:36.519Z,1021.50
2017-12-19T09:17:36.436Z,1021.52
2017-12-19T09:18:36.344Z,1021.48
2017-12-19T09:19:36.251Z,1021.44
2017-12-19T09:20:36.168Z,1021.47
2017-12-19T09:21:36.118Z,1021.43
2017-12-19T09:22:35.994Z,1021.41
2017-12-19T09:23:35.900Z,1021.45
2017-12-19T09:24:35.819Z,1021.41
2017-12-19T09:25:35.730Z,1021.44
2017-12-19T09:26:35.648Z,1021.50
2017-12-19T09:27:35.562Z,1021.55
2017-12-19T09:28:35.468Z,1021.56
2017-12-19T09:29:35.377Z,1021.59
2017-12-19T09:30:35.294Z,1021.58
2017-12-19T09:31:35.224Z,1021.60
2017-12-19T09:32:35.108Z,1021.59
2017-12-19T09:33:35.022Z,1021.59
2017-12-19T09:34:34.943Z,1021.61
2017-12-19T09:35:34.849Z,1021.66
2017-12-19T09:36:34.767Z,1021.71
2017-12-19T09:37:34.676Z,1021.76
2017-12-19T09:38:34.598Z,1021.83
2017-12-19T09:39:34.510Z,1021.85
2017-12-19T09:40:34.412Z,1021.87
2017-12-19T09:41:34.346Z,1021.90
2017-12-19T09:42:34.233Z,1021.88
2017-12-19T09:43:34.152Z,1021.85
2017-12-19T09:44:34.066Z,1021.84
2017-12-19T09:45:33.979Z,1021.82
2017-12-19T09:46:33.883Z,1021.81
2017-12-19T09:47:33.802Z,1021.73
2017-12-19T09:48:33.718Z,1021.73
2017-12-19T09:49:33.624Z,1021.77
2017-12-19T09:50:33.543Z,1021.83
2017-12-19T09:51:33.454Z,1021.86
2017-12-19T09:52:33.374Z,1021.86
2017-12-19T09:53:33.279Z,1021.86
2017-12-19T09:54:33.186Z,1021.92
2017-12-19T09:55:33.098Z,1021.91
2017-12-19T09:56:33.024Z,1021.93
2017-12-19T09:57:32.930Z,1021.94
2017-12-19T09:58:32.828Z,1021.96
2017-12-19T09:59:32.746Z,1021.94
2017-12-19T10:00:32.657Z,1021.95
2017-12-19T10:01:32.575Z,1021.91
2017-12-19T10:02:32.481Z,1021.88
2017-12-19T10:03:32.407Z,1021.83
2017-12-19T10:04:32.304Z,1021.78
2017-12-19T10:05:32.226Z,1021.80
2017-12-19T10:06:32.132Z,1021.75
2017-12-19T10:07:32.042Z,1021.74
2017-12-19T10:08:31.961Z,1021.77
2017-12-19T10:09:31.871Z,1021.75
2017-12-19T10:10:31.796Z,1021.75
2017-12-19T10:11:31.693Z,1021.81
2017-12-19T10:12:31.606Z,1021.84
2017-12-19T10:13:31.515Z,1021.81
2017-12-19T10:14:31.425Z,1021.81
2017-12-19T10:15:31.341Z,1021.74
2017-12-19T10:16:31.265Z,1021.72
2017-12-19T10:17:31.176Z,1021.79
2017-12-19T10:18:31.085Z,1021.82
2017-12-19T10:19:30.992Z,1021.76
2017-12-19T10:20:30.909Z,1021.72
2017-12-19T10:21:30.816Z,1021.71
2017-12-19T10:22:30.732Z,1021.72
2017-12-19T10:23:30.643Z,1021.76
2017-12-19T10:24:30.557Z,1021.81
2017-12-19T10:25:30.474Z,1021.84
2017-12-19T10:26:30.384Z,1021.83
2017-12-19T10:27:30.315Z,1021.84
2017-12-19T10:28:30.202Z,1021.86
2017-12-19T10:29:30.130Z,1021.88
2017-12-19T10:30:30.035Z,1021.91
2017-12-19T10:31:29.947Z,1021.92
2017-12-19T10:32:29.858Z,1021.88
2017-12-19T10:33:29.770Z,1021.83
2017-12-19T10:34:29.675Z,1021.86
2017-12-19T10:35:29.592Z,1021.83
2017-12-19T10:36:29.507Z,1021.75
2017-12-19T10:37:29.418Z,1021.69
2017-12-19T10:38:29.334Z,1021.69
2017-12-19T10:39:29.239Z,1021.69
2017-12-19T10:40:29.949Z,1021.76
2017-12-19T10:41:29.081Z,1021.77
2017-12-19T10:42:28.981Z,1021.77
2017-12-19T10:43:28.901Z,1021.75
2017-12-19T10:44:28.810Z,1021.75
2017-12-19T10:45:28.721Z,1021.76
2017-12-19T10:46:28.627Z,1021.79
2017-12-19T10:47:28.546Z,1021.84
2017-12-19T10:48:28.458Z,1021.85
2017-12-19T10:49:28.372Z,1021.85
2017-12-19T10:50:28.285Z,1021.80
2017-12-19T10:51:28.199Z,1021.73
2017-12-19T10:52:28.117Z,1021.68
2017-12-19T10:53:28.024Z,1021.69
2017-12-19T10:54:27.941Z,1021.73
2017-12-19T10:55:27.869Z,1021.79
2017-12-19T10:56:27.771Z,1021.78
2017-12-19T10:57:27.673Z,1021.86
2017-12-19T10:58:27.582Z,1021.85
2017-12-19T10:59:27.506Z,1021.86
2017-12-19T11:00:27.409Z,1021.88
2017-12-19T11:01:27.328Z,1021.85
2017-12-19T11:02:27.235Z,1021.77
2017-12-19T11:03:27.162Z,1021.78
2017-12-19T11:04:27.069Z,1021.79
2017-12-19T11:05:26.981Z,1021.84
2017-12-19T11:06:26.911Z,1021.80
2017-12-19T11:07:26.812Z,1021.79
2017-12-19T11:08:26.714Z,1021.76
2017-12-19T11:09:26.622Z,1021.77
2017-12-19T11:10:26.538Z,1021.78
2017-12-19T11:11:26.450Z,1021.81
2017-12-19T11:12:26.362Z,1021.78
2017-12-19T11:13:26.273Z,1021.81
2017-12-19T11:14:26.184Z,1021.83
2017-12-19T11:15:26.098Z,1021.85
2017-12-19T11:16:26.039Z,1021.82
2017-12-19T11:17:25.927Z,1021.85
2017-12-19T11:18:25.847Z,1021.78
2017-12-19T11:19:25.748Z,1021.81
2017-12-19T11:20:25.658Z,1021.86
2017-12-19T11:21:25.583Z,1021.87
2017-12-19T11:22:25.479Z,1021.87
2017-12-19T11:23:25.400Z,1021.88
2017-12-19T11:24:25.315Z,1021.91
2017-12-19T11:25:25.226Z,1021.89
2017-12-19T11:26:25.137Z,1021.90
2017-12-19T11:27:25.060Z,1021.91
2017-12-19T11:28:24.963Z,1021.93
2017-12-19T11:29:24.883Z,1021.95
2017-12-19T11:30:24.786Z,1021.92
2017-12-19T11:31:24.698Z,1021.90
2017-12-19T11:32:24.629Z,1021.87
2017-12-19T11:33:24.524Z,1021.91
2017-12-19T11:34:24.434Z,1021.93
2017-12-19T11:35:24.353Z,1021.94
2017-12-19T11:36:24.261Z,1021.96
2017-12-19T11:37:24.180Z,1021.98
2017-12-19T11:38:24.085Z,1021.97
2017-12-19T11:39:24.530Z,1021.94
2017-12-19T11:40:23.918Z,1021.92
2017-12-19T11:41:23.824Z,1021.93
2017-12-19T11:42:23.754Z,1021.97
2017-12-19T11:43:23.652Z,1021.98
2017-12-19T11:44:23.573Z,1021.96
2017-12-19T11:45:23.493Z,1021.92
2017-12-19T11:46:23.386Z,1021.83
2017-12-19T11:47:23.303Z,1021.82
2017-12-19T11:48:23.229Z,1021.85
2017-12-19T11:49:23.120Z,1021.89
2017-12-19T11:50:23.034Z,1021.94
2017-12-19T11:51:22.945Z,1021.93
2017-12-19T11:52:22.861Z,1021.91
2017-12-19T11:53:22.778Z,1021.90
2017-12-19T11:54:22.689Z,1021.90
2017-12-19T11:55:22.596Z,1021.90
2017-12-19T11:56:22.517Z,1021.87
2017-12-19T11:57:22.468Z,1021.83
2017-12-19T11:58:22.363Z,1021.87
2017-12-19T11:59:22.251Z,1021.86
2017-12-19T12:00:22.172Z,1021.82
2017-12-19T12:01:22.083Z,1021.78
2017-12-19T12:02:21.986Z,1021.76
2017-12-19T12:03:21.897Z,1021.79
2017-12-19T12:04:21.813Z,1021.83